Red Lake Airport
CYRL : now visible

Airfield :











YOU CAN JOIN US ON...

 
LOGIN :

Register | Disclaimer

   EN    FR    IT 

 









Legend :    VFR   Marginal VFR   IFR   Intensive IFR   Very Intensive IFR
Visi :
Ceiling :
>= 8 km
>= 3000ft
5 to 8 km
1000 to 3000 ft
1500m to 5 km
500 to 1000 ft
800 to 1500m
200 to 500 ft
< 800m
< 200 ft
Symbols :   Thunderstorms  Fog  Heavy snow  Heavy precipitations  Wind > 20 kt






- Airport Elevation : 1265 ft
- IATA code : YRL


CYRL - Red Lake

CURRENT METAR :
  • 280300Z 11007KT 15SM BKN030 M03/M07 A2974 RMK SC7 LAST STFD OBS/NEXT 281000UTC SLP096

EXPIRED METARs :
  • 280200Z 11006KT 15SM BKN027 M03/M07 A2975 RMK SC7 SLP099
  • 272200Z 12004KT 15SM OVC020 M02/M08 A2978 RMK SC8 SLP107

Expired Forecast.
CZWG FIR / North America



MET'MAP, your aeronautical weather chart ! - Copyright ORBIFLY December 2007 - Disclaimer

ORBIFLY MET'MAP TEAM :

Programming & Development : Alexandra Zaïnal
Original concept : Baudouin d'Aumeries
Technical & hardware support : Manuel Goepfert
Assistance : Marc-Olivier Méhu




SOURCES & CREDITS :

   NOAA       Earth
Advisory